Time;durP1;ratioP1;P1;durP2;ratioP2;P2;SDS_P1;SDS_P2;PMS_P1;PMS_P2;Temp;Humidity;BMP_temperature;BMP_pressure;BME280_temperature;BME280_humidity;BME280_pressure;Samples;Min_cycle;Max_cycle;Signal;HPM_P1;HPM_P2
2021/11/07 19:21:23;;;;;;;;;16.75;15.50;;;;;12.07;57.88;101977.94;6216341;22;46741;-88
2021/11/07 19:23:49;;;;;;;;;16.00;15.75;;;;;12.00;57.70;101962.94;6308514;22;45249;-91
2021/11/07 19:26:17;;;;;;;;;17.75;14.50;;;;;11.93;58.11;101966.38;6310255;22;45343;-87
2021/11/07 19:28:42;;;;;;;;;17.25;15.25;;;;;11.96;57.91;101965.53;6286164;22;44877;-85
2021/11/07 19:31:08;;;;;;;;;16.00;12.75;;;;;11.99;58.44;101970.81;6290512;22;47338;-93
2021/11/07 19:33:34;;;;;;;;;16.50;15.75;;;;;11.93;58.13;101955.81;6280475;22;44779;-93
2021/11/07 19:36:00;;;;;;;;;22.25;18.00;;;;;11.84;58.05;101942.47;6266930;22;44840;-94
2021/11/07 19:38:27;;;;;;;;;18.25;17.75;;;;;11.90;58.36;101959.31;6285347;22;45415;-89
2021/11/07 19:40:53;;;;;;;;;17.50;17.25;;;;;11.84;58.36;101959.22;6281998;22;46475;-90
2021/11/07 19:43:30;;;;;;;;;13.25;12.75;;;;;11.69;58.44;101940.59;6281227;22;45294;-89
2021/11/07 19:46:00;;;;;;;;;20.25;19.25;;;;;11.68;58.44;101959.91;6264456;22;45403;-87
2021/11/07 19:48:33;;;;;;;;;17.00;14.50;;;;;11.73;58.74;101976.66;6266200;22;45278;-87
2021/11/07 19:50:59;;;;;;;;;18.00;16.50;;;;;11.62;58.84;101965.09;6266955;22;46912;-93
2021/11/07 19:53:25;;;;;;;;;20.75;16.75;;;;;11.62;58.97;101951.91;6285205;22;44788;-92
2021/11/07 19:55:51;;;;;;;;;20.75;17.25;;;;;11.60;58.98;101956.28;6263159;22;45391;-94
2021/11/07 19:58:17;;;;;;;;;18.00;16.00;;;;;11.62;59.17;101963.34;6258282;22;45555;-92
2021/11/07 20:10:53;;;;;;;;;25.50;22.25;;;;;11.62;59.31;101968.63;6284303;22;45844;-95
2021/11/07 20:13:22;;;;;;;;;22.75;22.00;;;;;11.51;59.49;101945.66;6260377;22;45324;-93
2021/11/07 20:15:48;;;;;;;;;25.25;24.00;;;;;11.45;59.52;101944.69;6270017;22;44689;-94
2021/11/07 20:18:13;;;;;;;;;19.00;18.00;;;;;11.43;59.55;101969.28;6298061;22;44807;-95
2021/11/07 20:20:39;;;;;;;;;22.50;20.50;;;;;11.55;59.51;101987.03;6297400;22;46905;-93
2021/11/07 20:23:10;;;;;;;;;27.75;22.00;;;;;11.39;59.62;101947.28;6289559;22;45160;-95
2021/11/07 20:25:39;;;;;;;;;22.00;18.00;;;;;11.55;59.70;101969.44;6260209;22;45217;-94
2021/11/07 20:28:14;;;;;;;;;24.25;22.00;;;;;11.38;59.60;101953.41;6265856;22;45530;-95
2021/11/07 20:30:43;;;;;;;;;21.50;19.00;;;;;11.48;59.74;101975.50;6261200;22;47189;-93
2021/11/07 20:33:12;;;;;;;;;23.25;21.25;;;;;11.42;59.66;101968.41;6253729;22;45428;-93
2021/11/07 20:35:50;;;;;;;;;31.25;25.25;;;;;11.33;59.71;101948.94;6254633;22;45345;-93
2021/11/07 20:38:19;;;;;;;;;26.75;25.75;;;;;11.36;59.77;101960.41;6254803;22;46202;-92
2021/11/07 20:40:46;;;;;;;;;26.75;23.75;;;;;11.45;59.87;101978.09;6255308;22;48456;-95
2021/11/07 20:43:20;;;;;;;;;25.75;21.75;;;;;11.37;59.91;101964.81;6254536;22;45203;-94
2021/11/07 20:51:06;;;;;;;;;29.25;25.25;;;;;11.28;60.37;101967.34;6283574;22;45392;-94
2021/11/07 20:53:35;;;;;;;;;23.75;23.25;;;;;11.27;60.12;101958.53;6255534;22;45578;-93
2021/11/07 21:01:41;;;;;;;;;29.50;23.00;;;;;11.36;59.86;101973.59;6282097;22;45270;-95
2021/11/07 21:04:14;;;;;;;;;25.25;22.25;;;;;11.20;60.15;101956.69;6278716;22;45378;-94
2021/11/07 21:06:51;;;;;;;;;27.50;21.75;;;;;11.22;60.35;101967.25;6251715;22;45435;-94
2021/11/07 21:09:24;;;;;;;;;28.50;26.50;;;;;11.20;60.32;101966.31;6282315;22;45449;-95
2021/11/07 21:12:16;;;;;;;;;31.25;27.50;;;;;11.27;60.54;101979.63;6254204;22;47061;-94
2021/11/07 21:28:04;;;;;;;;;37.75;33.50;;;;;10.89;61.19;101942.22;6282930;22;45743;-93
2021/11/07 21:30:31;;;;;;;;;39.25;33.50;;;;;10.89;61.27;101951.88;6254501;22;45479;-93
2021/11/07 21:32:58;;;;;;;;;41.00;36.50;;;;;11.03;61.24;101995.09;6260749;22;46760;-93
2021/11/07 21:35:33;;;;;;;;;37.50;34.50;;;;;11.02;61.39;101985.44;6269313;22;44753;-95
2021/11/07 21:38:18;;;;;;;;;38.25;36.75;;;;;11.00;61.25;101988.03;6298368;22;44744;-94
2021/11/07 21:40:56;;;;;;;;;44.75;38.25;;;;;10.91;61.23;101969.47;6268569;22;44868;-93
2021/11/07 21:43:25;;;;;;;;;48.00;40.50;;;;;10.89;61.23;101981.72;6285791;22;47115;-92
2021/11/07 21:45:50;;;;;;;;;39.00;35.75;;;;;10.75;61.62;101978.88;6284592;22;45253;-94
2021/11/07 21:48:21;;;;;;;;;38.50;35.75;;;;;10.72;61.77;101976.22;6289149;22;44710;-94
2021/11/07 21:50:48;;;;;;;;;43.25;34.50;;;;;10.70;61.64;101975.28;6258029;22;45265;-94
2021/11/07 21:53:17;;;;;;;;;42.00;37.25;;;;;10.80;61.61;101974.56;6262260;22;47584;-94
2021/11/07 21:55:43;;;;;;;;;37.25;35.00;;;;;10.78;61.52;101978.06;6257081;22;45479;-92
2021/11/07 21:58:09;;;;;;;;;42.00;34.25;;;;;10.62;61.71;101961.13;6259508;22;45373;-95
2021/11/07 22:00:35;;;;;;;;;33.00;30.00;;;;;10.69;61.67;101991.97;6261661;22;45390;-93
2021/11/07 22:03:02;;;;;;;;;43.00;34.25;;;;;10.78;62.25;102002.63;6252924;22;47301;-92
2021/11/07 22:05:28;;;;;;;;;44.25;35.75;;;;;10.65;62.02;101979.59;6254731;22;45476;-93
2021/11/07 22:07:53;;;;;;;;;39.50;35.25;;;;;10.73;61.99;101983.25;6252726;22;45348;-92
2021/11/07 22:10:25;;;;;;;;;35.50;31.50;;;;;10.52;62.35;101952.19;6278739;22;45361;-94
2021/11/07 22:12:51;;;;;;;;;33.00;28.50;;;;;10.54;62.48;101965.38;6251138;22;46655;-95
2021/11/07 22:15:46;;;;;;;;;32.75;30.25;;;;;10.60;62.42;101981.28;6254256;22;45612;-93
2021/11/07 22:18:15;;;;;;;;;39.25;31.50;;;;;10.52;62.71;101972.38;6250637;22;45486;-91
2021/11/07 22:20:43;;;;;;;;;33.25;30.00;;;;;10.60;62.40;101989.16;6250031;22;45488;-88
2021/11/07 22:25:45;;;;;;;;;38.50;32.25;;;;;10.49;62.80;101962.66;6277540;22;45342;-88
2021/11/07 22:28:12;;;;;;;;;37.50;33.25;;;;;10.59;62.65;101980.38;6280124;22;45493;-89
2021/11/07 22:30:38;;;;;;;;;39.00;35.00;;;;;10.49;62.87;101969.69;6284117;22;45401;-89
2021/11/07 22:33:06;;;;;;;;;37.00;31.75;;;;;10.42;62.80;101975.69;6256712;22;46904;-90
2021/11/07 22:35:35;;;;;;;;;40.00;33.75;;;;;10.48;62.78;101986.34;6252579;22;45700;-89
2021/11/07 22:38:02;;;;;;;;;42.25;34.25;;;;;10.43;62.84;101975.75;6251367;22;45359;-90
2021/11/07 22:40:33;;;;;;;;;38.50;30.25;;;;;10.49;62.96;101996.88;6275961;22;45351;-89
2021/11/07 22:42:59;;;;;;;;;38.00;33.50;;;;;10.42;62.73;101981.84;6251225;22;47104;-89
2021/11/07 22:45:25;;;;;;;;;37.25;31.50;;;;;10.35;62.84;101975.59;6275320;22;45444;-90
2021/11/07 23:06:22;;;;;;;;;36.00;28.50;;;;;10.28;63.38;102017.59;6283555;22;45429;-90
2021/11/07 23:11:22;;;;;;;;;33.00;26.75;;;;;10.23;63.37;102014.81;6277028;22;45358;-88
2021/11/07 23:13:54;;;;;;;;;32.50;29.50;;;;;10.28;63.43;102031.63;6251660;22;46649;-89
2021/11/07 23:16:20;;;;;;;;;36.00;29.25;;;;;10.26;63.49;102019.25;6253240;22;45240;-90
2021/11/07 23:18:47;;;;;;;;;34.75;31.25;;;;;10.15;63.34;102005.91;6277354;22;45304;-92
2021/11/07 23:21:13;;;;;;;;;34.00;29.75;;;;;10.18;63.48;102018.22;6254681;22;44735;-90
2021/11/07 23:23:39;;;;;;;;;32.25;29.50;;;;;10.26;63.73;102037.69;6277297;22;47312;-90
2021/11/07 23:26:09;;;;;;;;;34.00;30.50;;;;;10.25;63.38;102043.81;6251247;22;45465;-90
2021/11/07 23:28:36;;;;;;;;;31.25;29.00;;;;;10.11;63.76;102030.41;6251242;22;45378;-90
2021/11/07 23:31:02;;;;;;;;;31.00;29.00;;;;;10.21;63.81;102045.50;6275700;22;45778;-90
2021/11/07 23:33:31;;;;;;;;;35.00;28.75;;;;;10.20;63.92;102046.34;6251181;22;47989;-89
2021/11/07 23:36:03;;;;;;;;;32.25;31.00;;;;;10.18;63.73;102049.81;6275149;22;45392;-89
2021/11/07 23:38:31;;;;;;;;;32.75;29.25;;;;;10.14;64.23;102040.97;6251692;22;45359;-90
2021/11/07 23:40:57;;;;;;;;;29.75;28.00;;;;;10.13;63.64;102031.28;6276461;22;45930;-90
2021/11/07 23:43:22;;;;;;;;;29.75;28.25;;;;;10.02;63.89;102009.16;6253411;22;46476;-93
2021/11/07 23:45:50;;;;;;;;;29.75;26.00;;;;;10.11;63.96;102036.53;6252738;22;45264;-90
2021/11/07 23:48:16;;;;;;;;;32.00;27.75;;;;;10.04;64.04;102034.66;6256447;22;45201;-90
2021/11/07 23:53:19;;;;;;;;;28.50;28.50;;;;;10.05;64.38;102025.91;6282156;22;45653;-90
2021/11/07 23:55:45;;;;;;;;;24.50;22.00;;;;;9.98;64.11;102028.41;6250382;22;45452;-88
2021/11/07 23:58:12;;;;;;;;;19.50;18.50;;;;;9.89;64.21;102027.34;6279705;22;45456;-89
